sensor_id;sensor_type;location;lat;lon;timestamp;P1;durP1;ratioP1;P2;durP2;ratioP2
19225;SDS011;9747;48.536;12.522;2023-05-07T00:01:17;1.10;;;1.10;;
19225;SDS011;9747;48.536;12.522;2023-05-07T00:03:45;1.20;;;1.20;;
19225;SDS011;9747;48.536;12.522;2023-05-07T00:06:12;1.20;;;1.20;;
19225;SDS011;9747;48.536;12.522;2023-05-07T00:08:39;1.75;;;1.10;;
19225;SDS011;9747;48.536;12.522;2023-05-07T00:11:07;1.20;;;1.20;;
19225;SDS011;9747;48.536;12.522;2023-05-07T00:13:35;0.98;;;0.98;;
19225;SDS011;9747;48.536;12.522;2023-05-07T00:16:03;1.20;;;1.20;;
19225;SDS011;9747;48.536;12.522;2023-05-07T00:18:31;1.45;;;1.40;;
19225;SDS011;9747;48.536;12.522;2023-05-07T00:20:58;1.10;;;1.05;;
19225;SDS011;9747;48.536;12.522;2023-05-07T00:23:26;1.33;;;1.33;;
19225;SDS011;9747;48.536;12.522;2023-05-07T00:25:53;1.10;;;1.10;;
19225;SDS011;9747;48.536;12.522;2023-05-07T00:28:20;1.20;;;1.20;;
19225;SDS011;9747;48.536;12.522;2023-05-07T00:30:49;1.10;;;1.10;;
19225;SDS011;9747;48.536;12.522;2023-05-07T00:33:17;1.10;;;1.10;;
19225;SDS011;9747;48.536;12.522;2023-05-07T00:35:45;1.20;;;1.20;;
19225;SDS011;9747;48.536;12.522;2023-05-07T00:38:13;1.10;;;1.10;;
19225;SDS011;9747;48.536;12.522;2023-05-07T00:40:40;1.10;;;1.10;;
19225;SDS011;9747;48.536;12.522;2023-05-07T00:43:08;1.38;;;1.38;;
19225;SDS011;9747;48.536;12.522;2023-05-07T00:45:35;1.10;;;1.10;;
19225;SDS011;9747;48.536;12.522;2023-05-07T00:48:04;1.40;;;1.30;;
19225;SDS011;9747;48.536;12.522;2023-05-07T00:50:32;1.58;;;1.23;;
19225;SDS011;9747;48.536;12.522;2023-05-07T00:52:59;1.20;;;1.20;;
19225;SDS011;9747;48.536;12.522;2023-05-07T00:55:27;1.10;;;1.10;;
19225;SDS011;9747;48.536;12.522;2023-05-07T00:57:54;1.10;;;1.10;;
19225;SDS011;9747;48.536;12.522;2023-05-07T01:00:22;1.33;;;1.33;;
19225;SDS011;9747;48.536;12.522;2023-05-07T01:02:50;1.10;;;1.10;;
19225;SDS011;9747;48.536;12.522;2023-05-07T01:05:19;1.20;;;1.20;;
19225;SDS011;9747;48.536;12.522;2023-05-07T01:07:48;1.02;;;1.02;;
19225;SDS011;9747;48.536;12.522;2023-05-07T01:10:16;1.13;;;1.13;;
19225;SDS011;9747;48.536;12.522;2023-05-07T01:12:44;1.20;;;1.20;;
19225;SDS011;9747;48.536;12.522;2023-05-07T01:15:12;1.17;;;1.10;;
19225;SDS011;9747;48.536;12.522;2023-05-07T01:17:40;1.13;;;1.13;;
19225;SDS011;9747;48.536;12.522;2023-05-07T01:20:17;1.20;;;1.10;;
19225;SDS011;9747;48.536;12.522;2023-05-07T01:22:50;1.20;;;1.20;;
19225;SDS011;9747;48.536;12.522;2023-05-07T01:25:17;0.95;;;0.95;;
19225;SDS011;9747;48.536;12.522;2023-05-07T01:27:49;1.30;;;1.30;;
19225;SDS011;9747;48.536;12.522;2023-05-07T01:30:20;1.30;;;1.20;;
19225;SDS011;9747;48.536;12.522;2023-05-07T01:32:49;1.10;;;1.10;;
19225;SDS011;9747;48.536;12.522;2023-05-07T01:35:20;1.20;;;1.20;;
19225;SDS011;9747;48.536;12.522;2023-05-07T01:37:53;1.10;;;1.10;;
19225;SDS011;9747;48.536;12.522;2023-05-07T01:40:21;1.20;;;1.20;;
19225;SDS011;9747;48.536;12.522;2023-05-07T01:42:49;1.08;;;1.08;;
19225;SDS011;9747;48.536;12.522;2023-05-07T01:45:17;1.20;;;1.20;;
19225;SDS011;9747;48.536;12.522;2023-05-07T01:47:44;1.25;;;1.25;;
19225;SDS011;9747;48.536;12.522;2023-05-07T01:50:12;1.85;;;1.13;;
19225;SDS011;9747;48.536;12.522;2023-05-07T01:52:41;1.02;;;1.02;;
19225;SDS011;9747;48.536;12.522;2023-05-07T01:55:10;1.20;;;1.20;;
19225;SDS011;9747;48.536;12.522;2023-05-07T01:57:38;1.23;;;1.23;;
19225;SDS011;9747;48.536;12.522;2023-05-07T02:00:07;1.35;;;1.35;;
19225;SDS011;9747;48.536;12.522;2023-05-07T02:02:41;1.20;;;1.20;;
19225;SDS011;9747;48.536;12.522;2023-05-07T02:05:20;1.00;;;1.00;;
19225;SDS011;9747;48.536;12.522;2023-05-07T02:07:54;1.10;;;1.10;;
19225;SDS011;9747;48.536;12.522;2023-05-07T02:10:25;1.20;;;1.10;;
19225;SDS011;9747;48.536;12.522;2023-05-07T02:12:52;1.15;;;1.15;;
19225;SDS011;9747;48.536;12.522;2023-05-07T02:15:20;1.10;;;1.10;;
19225;SDS011;9747;48.536;12.522;2023-05-07T02:17:57;1.20;;;1.20;;
19225;SDS011;9747;48.536;12.522;2023-05-07T02:20:26;1.20;;;1.10;;
19225;SDS011;9747;48.536;12.522;2023-05-07T02:22:54;1.30;;;1.30;;
19225;SDS011;9747;48.536;12.522;2023-05-07T02:25:22;1.13;;;1.13;;
19225;SDS011;9747;48.536;12.522;2023-05-07T02:27:50;1.10;;;1.10;;
19225;SDS011;9747;48.536;12.522;2023-05-07T02:30:22;1.10;;;1.10;;
19225;SDS011;9747;48.536;12.522;2023-05-07T02:32:53;1.35;;;1.25;;
19225;SDS011;9747;48.536;12.522;2023-05-07T02:35:21;1.30;;;1.30;;
19225;SDS011;9747;48.536;12.522;2023-05-07T02:37:48;1.30;;;1.30;;
19225;SDS011;9747;48.536;12.522;2023-05-07T02:40:16;1.20;;;1.20;;
19225;SDS011;9747;48.536;12.522;2023-05-07T02:42:45;1.20;;;1.20;;
19225;SDS011;9747;48.536;12.522;2023-05-07T02:45:12;1.20;;;1.20;;
19225;SDS011;9747;48.536;12.522;2023-05-07T02:47:41;1.48;;;1.45;;
19225;SDS011;9747;48.536;12.522;2023-05-07T02:50:09;1.25;;;1.25;;
19225;SDS011;9747;48.536;12.522;2023-05-07T02:52:37;1.30;;;1.30;;
19225;SDS011;9747;48.536;12.522;2023-05-07T02:55:05;1.40;;;1.30;;
19225;SDS011;9747;48.536;12.522;2023-05-07T02:57:33;1.35;;;1.35;;
19225;SDS011;9747;48.536;12.522;2023-05-07T03:00:11;1.20;;;1.20;;
19225;SDS011;9747;48.536;12.522;2023-05-07T03:02:46;1.48;;;1.48;;
19225;SDS011;9747;48.536;12.522;2023-05-07T03:05:13;1.30;;;1.30;;
19225;SDS011;9747;48.536;12.522;2023-05-07T03:07:41;1.20;;;1.20;;
19225;SDS011;9747;48.536;12.522;2023-05-07T03:10:11;1.25;;;1.25;;
19225;SDS011;9747;48.536;12.522;2023-05-07T03:12:38;1.40;;;1.40;;
19225;SDS011;9747;48.536;12.522;2023-05-07T03:15:07;1.35;;;1.35;;
19225;SDS011;9747;48.536;12.522;2023-05-07T03:17:37;1.10;;;1.10;;
19225;SDS011;9747;48.536;12.522;2023-05-07T03:20:05;1.20;;;1.20;;
19225;SDS011;9747;48.536;12.522;2023-05-07T03:22:35;1.30;;;1.27;;
19225;SDS011;9747;48.536;12.522;2023-05-07T03:25:03;1.48;;;1.48;;
19225;SDS011;9747;48.536;12.522;2023-05-07T03:27:32;1.23;;;1.23;;
19225;SDS011;9747;48.536;12.522;2023-05-07T03:30:00;1.30;;;1.30;;
19225;SDS011;9747;48.536;12.522;2023-05-07T03:32:29;1.17;;;1.17;;
19225;SDS011;9747;48.536;12.522;2023-05-07T03:34:57;1.30;;;1.30;;
19225;SDS011;9747;48.536;12.522;2023-05-07T03:37:24;1.30;;;1.30;;
19225;SDS011;9747;48.536;12.522;2023-05-07T03:39:53;1.30;;;1.30;;
19225;SDS011;9747;48.536;12.522;2023-05-07T03:42:20;1.50;;;1.40;;
19225;SDS011;9747;48.536;12.522;2023-05-07T03:44:50;1.30;;;1.30;;
19225;SDS011;9747;48.536;12.522;2023-05-07T03:47:18;1.60;;;1.52;;
19225;SDS011;9747;48.536;12.522;2023-05-07T03:49:48;1.38;;;1.38;;
19225;SDS011;9747;48.536;12.522;2023-05-07T03:52:15;1.30;;;1.30;;
19225;SDS011;9747;48.536;12.522;2023-05-07T03:54:48;1.20;;;1.20;;
19225;SDS011;9747;48.536;12.522;2023-05-07T03:57:15;1.45;;;1.40;;
19225;SDS011;9747;48.536;12.522;2023-05-07T03:59:43;1.15;;;1.15;;
19225;SDS011;9747;48.536;12.522;2023-05-07T04:02:11;1.38;;;1.30;;
19225;SDS011;9747;48.536;12.522;2023-05-07T04:04:39;1.30;;;1.20;;
19225;SDS011;9747;48.536;12.522;2023-05-07T04:07:09;1.10;;;1.10;;
19225;SDS011;9747;48.536;12.522;2023-05-07T04:09:41;1.10;;;1.10;;
19225;SDS011;9747;48.536;12.522;2023-05-07T04:12:08;1.33;;;1.33;;
19225;SDS011;9747;48.536;12.522;2023-05-07T04:14:36;1.30;;;1.30;;
19225;SDS011;9747;48.536;12.522;2023-05-07T04:17:03;1.20;;;1.20;;
19225;SDS011;9747;48.536;12.522;2023-05-07T04:19:32;1.20;;;1.20;;
19225;SDS011;9747;48.536;12.522;2023-05-07T04:22:00;1.30;;;1.30;;
19225;SDS011;9747;48.536;12.522;2023-05-07T04:24:32;1.20;;;1.20;;
19225;SDS011;9747;48.536;12.522;2023-05-07T04:27:00;1.40;;;1.30;;
19225;SDS011;9747;48.536;12.522;2023-05-07T04:29:28;1.20;;;1.20;;
19225;SDS011;9747;48.536;12.522;2023-05-07T04:31:55;1.25;;;1.25;;
19225;SDS011;9747;48.536;12.522;2023-05-07T04:34:24;1.27;;;1.27;;
19225;SDS011;9747;48.536;12.522;2023-05-07T04:36:52;1.35;;;1.35;;
19225;SDS011;9747;48.536;12.522;2023-05-07T04:39:19;1.20;;;1.20;;
19225;SDS011;9747;48.536;12.522;2023-05-07T04:41:49;1.25;;;1.25;;
19225;SDS011;9747;48.536;12.522;2023-05-07T04:44:17;1.60;;;1.50;;
19225;SDS011;9747;48.536;12.522;2023-05-07T04:46:44;1.20;;;1.20;;
19225;SDS011;9747;48.536;12.522;2023-05-07T04:49:12;1.27;;;1.17;;
19225;SDS011;9747;48.536;12.522;2023-05-07T04:51:39;1.20;;;1.20;;
19225;SDS011;9747;48.536;12.522;2023-05-07T04:54:08;1.33;;;1.33;;
19225;SDS011;9747;48.536;12.522;2023-05-07T04:56:36;1.25;;;1.20;;
19225;SDS011;9747;48.536;12.522;2023-05-07T04:59:04;1.30;;;1.30;;
19225;SDS011;9747;48.536;12.522;2023-05-07T05:01:32;1.20;;;1.20;;
19225;SDS011;9747;48.536;12.522;2023-05-07T05:03:59;1.58;;;1.48;;
19225;SDS011;9747;48.536;12.522;2023-05-07T05:06:28;1.30;;;1.25;;
19225;SDS011;9747;48.536;12.522;2023-05-07T05:08:55;1.13;;;1.13;;
19225;SDS011;9747;48.536;12.522;2023-05-07T05:11:24;1.30;;;1.30;;
19225;SDS011;9747;48.536;12.522;2023-05-07T05:13:52;1.27;;;1.27;;
19225;SDS011;9747;48.536;12.522;2023-05-07T05:16:21;1.52;;;1.48;;
19225;SDS011;9747;48.536;12.522;2023-05-07T05:18:49;1.27;;;1.27;;
19225;SDS011;9747;48.536;12.522;2023-05-07T05:21:18;1.30;;;1.30;;
19225;SDS011;9747;48.536;12.522;2023-05-07T05:23:48;1.25;;;1.25;;
19225;SDS011;9747;48.536;12.522;2023-05-07T05:26:19;1.77;;;1.10;;
19225;SDS011;9747;48.536;12.522;2023-05-07T05:28:47;1.10;;;1.10;;
19225;SDS011;9747;48.536;12.522;2023-05-07T05:31:16;1.00;;;1.00;;
19225;SDS011;9747;48.536;12.522;2023-05-07T05:33:45;1.40;;;1.40;;
19225;SDS011;9747;48.536;12.522;2023-05-07T05:36:13;1.30;;;1.30;;
19225;SDS011;9747;48.536;12.522;2023-05-07T05:38:42;1.50;;;1.40;;
19225;SDS011;9747;48.536;12.522;2023-05-07T05:41:11;1.00;;;1.00;;
19225;SDS011;9747;48.536;12.522;2023-05-07T05:43:38;1.20;;;1.20;;
19225;SDS011;9747;48.536;12.522;2023-05-07T05:46:06;1.23;;;1.10;;
19225;SDS011;9747;48.536;12.522;2023-05-07T05:48:34;1.30;;;1.20;;
19225;SDS011;9747;48.536;12.522;2023-05-07T05:51:04;1.30;;;1.30;;
19225;SDS011;9747;48.536;12.522;2023-05-07T05:53:32;1.52;;;1.20;;
19225;SDS011;9747;48.536;12.522;2023-05-07T05:56:01;1.33;;;1.33;;
19225;SDS011;9747;48.536;12.522;2023-05-07T05:58:30;1.38;;;1.38;;
19225;SDS011;9747;48.536;12.522;2023-05-07T06:01:01;1.60;;;1.60;;
19225;SDS011;9747;48.536;12.522;2023-05-07T06:03:29;1.23;;;1.23;;
19225;SDS011;9747;48.536;12.522;2023-05-07T06:06:00;1.35;;;1.35;;
19225;SDS011;9747;48.536;12.522;2023-05-07T06:08:30;1.20;;;1.20;;
19225;SDS011;9747;48.536;12.522;2023-05-07T06:10:58;1.40;;;1.35;;
19225;SDS011;9747;48.536;12.522;2023-05-07T06:13:26;1.70;;;1.23;;
19225;SDS011;9747;48.536;12.522;2023-05-07T06:15:53;1.60;;;1.50;;
19225;SDS011;9747;48.536;12.522;2023-05-07T06:18:21;1.77;;;1.42;;
19225;SDS011;9747;48.536;12.522;2023-05-07T06:20:48;1.50;;;1.40;;
19225;SDS011;9747;48.536;12.522;2023-05-07T06:23:23;1.23;;;1.23;;
19225;SDS011;9747;48.536;12.522;2023-05-07T06:25:52;2.70;;;1.60;;
19225;SDS011;9747;48.536;12.522;2023-05-07T06:28:25;2.35;;;1.40;;
19225;SDS011;9747;48.536;12.522;2023-05-07T06:30:53;2.45;;;1.40;;
19225;SDS011;9747;48.536;12.522;2023-05-07T06:33:20;2.08;;;1.50;;
19225;SDS011;9747;48.536;12.522;2023-05-07T06:35:48;1.67;;;1.55;;
19225;SDS011;9747;48.536;12.522;2023-05-07T06:38:15;3.55;;;2.25;;
19225;SDS011;9747;48.536;12.522;2023-05-07T06:40:43;1.70;;;1.60;;
19225;SDS011;9747;48.536;12.522;2023-05-07T06:43:15;3.03;;;2.00;;
19225;SDS011;9747;48.536;12.522;2023-05-07T06:46:05;2.10;;;1.90;;
19225;SDS011;9747;48.536;12.522;2023-05-07T06:48:33;1.80;;;1.70;;
19225;SDS011;9747;48.536;12.522;2023-05-07T06:51:04;3.03;;;1.80;;
19225;SDS011;9747;48.536;12.522;2023-05-07T06:53:31;1.88;;;1.70;;
19225;SDS011;9747;48.536;12.522;2023-05-07T06:56:00;2.10;;;1.88;;
19225;SDS011;9747;48.536;12.522;2023-05-07T06:58:29;1.58;;;1.58;;
19225;SDS011;9747;48.536;12.522;2023-05-07T07:00:56;4.18;;;1.60;;
19225;SDS011;9747;48.536;12.522;2023-05-07T07:03:24;1.90;;;1.77;;
19225;SDS011;9747;48.536;12.522;2023-05-07T07:05:53;11.75;;;4.65;;
19225;SDS011;9747;48.536;12.522;2023-05-07T07:08:21;6.10;;;4.07;;
19225;SDS011;9747;48.536;12.522;2023-05-07T07:10:50;4.20;;;3.83;;
19225;SDS011;9747;48.536;12.522;2023-05-07T07:13:17;4.30;;;3.92;;
19225;SDS011;9747;48.536;12.522;2023-05-07T07:15:47;4.03;;;3.63;;
19225;SDS011;9747;48.536;12.522;2023-05-07T07:18:16;3.78;;;3.28;;
19225;SDS011;9747;48.536;12.522;2023-05-07T07:20:46;4.63;;;3.40;;
19225;SDS011;9747;48.536;12.522;2023-05-07T07:23:14;3.03;;;2.67;;
19225;SDS011;9747;48.536;12.522;2023-05-07T07:25:42;5.97;;;3.33;;
19225;SDS011;9747;48.536;12.522;2023-05-07T07:28:10;3.72;;;3.42;;
19225;SDS011;9747;48.536;12.522;2023-05-07T07:30:38;4.10;;;3.70;;
19225;SDS011;9747;48.536;12.522;2023-05-07T07:33:07;4.30;;;3.92;;
19225;SDS011;9747;48.536;12.522;2023-05-07T07:35:36;3.83;;;3.38;;
19225;SDS011;9747;48.536;12.522;2023-05-07T07:38:05;3.75;;;3.40;;
19225;SDS011;9747;48.536;12.522;2023-05-07T07:40:34;4.07;;;3.75;;
19225;SDS011;9747;48.536;12.522;2023-05-07T07:43:02;3.92;;;3.20;;
19225;SDS011;9747;48.536;12.522;2023-05-07T07:45:31;4.05;;;3.65;;
19225;SDS011;9747;48.536;12.522;2023-05-07T07:47:59;6.43;;;3.40;;
19225;SDS011;9747;48.536;12.522;2023-05-07T07:50:30;3.63;;;3.20;;
19225;SDS011;9747;48.536;12.522;2023-05-07T07:52:58;3.92;;;3.42;;
19225;SDS011;9747;48.536;12.522;2023-05-07T07:55:26;3.63;;;3.28;;
19225;SDS011;9747;48.536;12.522;2023-05-07T07:57:54;4.03;;;3.58;;
19225;SDS011;9747;48.536;12.522;2023-05-07T08:00:23;3.40;;;3.10;;
19225;SDS011;9747;48.536;12.522;2023-05-07T08:02:54;3.55;;;3.20;;
19225;SDS011;9747;48.536;12.522;2023-05-07T08:05:26;3.72;;;3.42;;
19225;SDS011;9747;48.536;12.522;2023-05-07T08:07:55;3.00;;;2.80;;
19225;SDS011;9747;48.536;12.522;2023-05-07T08:10:28;3.30;;;3.10;;
19225;SDS011;9747;48.536;12.522;2023-05-07T08:13:02;3.80;;;3.00;;
19225;SDS011;9747;48.536;12.522;2023-05-07T08:15:30;3.65;;;3.10;;
19225;SDS011;9747;48.536;12.522;2023-05-07T08:17:58;4.25;;;3.50;;
19225;SDS011;9747;48.536;12.522;2023-05-07T08:20:29;4.63;;;3.15;;
19225;SDS011;9747;48.536;12.522;2023-05-07T08:22:58;3.78;;;3.47;;
19225;SDS011;9747;48.536;12.522;2023-05-07T08:25:26;3.83;;;3.53;;
19225;SDS011;9747;48.536;12.522;2023-05-07T08:27:54;3.70;;;3.40;;
19225;SDS011;9747;48.536;12.522;2023-05-07T08:30:22;4.32;;;3.35;;
19225;SDS011;9747;48.536;12.522;2023-05-07T08:32:50;2.90;;;2.80;;
19225;SDS011;9747;48.536;12.522;2023-05-07T08:35:18;3.10;;;2.72;;
19225;SDS011;9747;48.536;12.522;2023-05-07T08:37:46;3.20;;;3.00;;
19225;SDS011;9747;48.536;12.522;2023-05-07T08:40:16;2.97;;;2.67;;
19225;SDS011;9747;48.536;12.522;2023-05-07T08:42:44;4.78;;;3.75;;
19225;SDS011;9747;48.536;12.522;2023-05-07T08:45:11;3.85;;;3.58;;
19225;SDS011;9747;48.536;12.522;2023-05-07T08:47:43;4.65;;;4.00;;
19225;SDS011;9747;48.536;12.522;2023-05-07T08:50:15;3.95;;;3.50;;
19225;SDS011;9747;48.536;12.522;2023-05-07T08:52:43;3.33;;;3.13;;
19225;SDS011;9747;48.536;12.522;2023-05-07T08:55:11;4.00;;;3.60;;
19225;SDS011;9747;48.536;12.522;2023-05-07T08:57:42;3.97;;;3.13;;
19225;SDS011;9747;48.536;12.522;2023-05-07T09:00:11;3.42;;;3.10;;
19225;SDS011;9747;48.536;12.522;2023-05-07T09:02:42;3.05;;;2.85;;
19225;SDS011;9747;48.536;12.522;2023-05-07T09:05:10;3.97;;;3.22;;
19225;SDS011;9747;48.536;12.522;2023-05-07T09:07:38;3.10;;;2.90;;
19225;SDS011;9747;48.536;12.522;2023-05-07T09:10:06;3.22;;;2.85;;
19225;SDS011;9747;48.536;12.522;2023-05-07T09:12:37;3.22;;;3.03;;
19225;SDS011;9747;48.536;12.522;2023-05-07T09:15:09;2.95;;;2.75;;
19225;SDS011;9747;48.536;12.522;2023-05-07T09:17:38;3.85;;;3.40;;
19225;SDS011;9747;48.536;12.522;2023-05-07T09:20:07;2.92;;;2.72;;
19225;SDS011;9747;48.536;12.522;2023-05-07T09:22:36;3.53;;;3.17;;
19225;SDS011;9747;48.536;12.522;2023-05-07T09:25:08;3.10;;;2.90;;
19225;SDS011;9747;48.536;12.522;2023-05-07T09:27:37;4.75;;;2.75;;
19225;SDS011;9747;48.536;12.522;2023-05-07T09:30:05;2.97;;;2.60;;
19225;SDS011;9747;48.536;12.522;2023-05-07T09:32:36;3.40;;;2.78;;
19225;SDS011;9747;48.536;12.522;2023-05-07T09:35:05;2.97;;;2.78;;
19225;SDS011;9747;48.536;12.522;2023-05-07T09:37:36;3.92;;;3.05;;
19225;SDS011;9747;48.536;12.522;2023-05-07T09:40:04;2.92;;;2.72;;
19225;SDS011;9747;48.536;12.522;2023-05-07T09:42:34;2.85;;;2.58;;
19225;SDS011;9747;48.536;12.522;2023-05-07T09:45:04;3.08;;;2.88;;
19225;SDS011;9747;48.536;12.522;2023-05-07T09:47:37;3.03;;;2.83;;
19225;SDS011;9747;48.536;12.522;2023-05-07T09:50:06;3.15;;;2.72;;
19225;SDS011;9747;48.536;12.522;2023-05-07T09:52:36;3.72;;;2.72;;
19225;SDS011;9747;48.536;12.522;2023-05-07T09:55:08;2.88;;;2.55;;
19225;SDS011;9747;48.536;12.522;2023-05-07T09:57:36;2.60;;;2.40;;
19225;SDS011;9747;48.536;12.522;2023-05-07T10:00:07;2.80;;;2.60;;
19225;SDS011;9747;48.536;12.522;2023-05-07T10:02:49;2.53;;;2.42;;
19225;SDS011;9747;48.536;12.522;2023-05-07T10:05:24;3.00;;;2.80;;
19225;SDS011;9747;48.536;12.522;2023-05-07T10:07:55;2.72;;;2.53;;
19225;SDS011;9747;48.536;12.522;2023-05-07T10:10:24;2.72;;;2.55;;
19225;SDS011;9747;48.536;12.522;2023-05-07T10:12:52;2.80;;;2.60;;
19225;SDS011;9747;48.536;12.522;2023-05-07T10:15:27;2.55;;;2.30;;
19225;SDS011;9747;48.536;12.522;2023-05-07T10:17:59;2.83;;;2.42;;
19225;SDS011;9747;48.536;12.522;2023-05-07T10:20:27;2.88;;;2.58;;
19225;SDS011;9747;48.536;12.522;2023-05-07T10:22:55;2.80;;;2.60;;
19225;SDS011;9747;48.536;12.522;2023-05-07T10:25:30;2.72;;;2.40;;
19225;SDS011;9747;48.536;12.522;2023-05-07T10:28:06;2.65;;;2.42;;
19225;SDS011;9747;48.536;12.522;2023-05-07T10:30:40;3.55;;;2.65;;
19225;SDS011;9747;48.536;12.522;2023-05-07T10:33:23;2.28;;;2.03;;
19225;SDS011;9747;48.536;12.522;2023-05-07T10:35:55;2.50;;;2.30;;
19225;SDS011;9747;48.536;12.522;2023-05-07T10:38:26;2.40;;;2.20;;
19225;SDS011;9747;48.536;12.522;2023-05-07T10:40:57;2.63;;;2.50;;
19225;SDS011;9747;48.536;12.522;2023-05-07T10:43:34;2.40;;;2.13;;
19225;SDS011;9747;48.536;12.522;2023-05-07T10:46:10;3.58;;;2.40;;
19225;SDS011;9747;48.536;12.522;2023-05-07T10:55:20;2.08;;;1.90;;
19225;SDS011;9747;48.536;12.522;2023-05-07T10:58:24;2.40;;;2.20;;
19225;SDS011;9747;48.536;12.522;2023-05-07T11:00:58;2.20;;;2.03;;
19225;SDS011;9747;48.536;12.522;2023-05-07T11:03:33;2.40;;;2.20;;
19225;SDS011;9747;48.536;12.522;2023-05-07T11:06:11;2.33;;;1.98;;
19225;SDS011;9747;48.536;12.522;2023-05-07T11:08:57;2.38;;;2.10;;
19225;SDS011;9747;48.536;12.522;2023-05-07T11:11:45;3.22;;;2.15;;
19225;SDS011;9747;48.536;12.522;2023-05-07T11:14:45;2.40;;;2.30;;
19225;SDS011;9747;48.536;12.522;2023-05-07T11:17:20;1.95;;;1.85;;
19225;SDS011;9747;48.536;12.522;2023-05-07T11:19:55;2.25;;;2.05;;
19225;SDS011;9747;48.536;12.522;2023-05-07T11:22:43;4.70;;;2.60;;
19225;SDS011;9747;48.536;12.522;2023-05-07T11:25:29;4.45;;;2.58;;
19225;SDS011;9747;48.536;12.522;2023-05-07T11:28:19;2.55;;;2.40;;
19225;SDS011;9747;48.536;12.522;2023-05-07T11:30:57;2.20;;;2.10;;
19225;SDS011;9747;48.536;12.522;2023-05-07T11:33:25;3.00;;;2.35;;
19225;SDS011;9747;48.536;12.522;2023-05-07T11:35:54;3.60;;;2.50;;
19225;SDS011;9747;48.536;12.522;2023-05-07T11:38:30;2.60;;;2.47;;
19225;SDS011;9747;48.536;12.522;2023-05-07T11:41:01;2.80;;;2.35;;
19225;SDS011;9747;48.536;12.522;2023-05-07T11:43:30;2.60;;;2.40;;
19225;SDS011;9747;48.536;12.522;2023-05-07T11:46:04;2.50;;;2.38;;
19225;SDS011;9747;48.536;12.522;2023-05-07T11:48:33;2.17;;;2.08;;
19225;SDS011;9747;48.536;12.522;2023-05-07T11:51:01;2.50;;;2.30;;
19225;SDS011;9747;48.536;12.522;2023-05-07T11:53:36;2.22;;;2.13;;
19225;SDS011;9747;48.536;12.522;2023-05-07T11:56:05;2.10;;;2.00;;
19225;SDS011;9747;48.536;12.522;2023-05-07T11:58:33;2.20;;;2.10;;
19225;SDS011;9747;48.536;12.522;2023-05-07T12:01:01;2.63;;;2.00;;
19225;SDS011;9747;48.536;12.522;2023-05-07T12:03:29;2.00;;;1.88;;
19225;SDS011;9747;48.536;12.522;2023-05-07T12:05:56;2.22;;;2.10;;
19225;SDS011;9747;48.536;12.522;2023-05-07T12:08:24;2.20;;;1.83;;
19225;SDS011;9747;48.536;12.522;2023-05-07T12:10:53;2.38;;;2.08;;
19225;SDS011;9747;48.536;12.522;2023-05-07T12:13:22;1.70;;;1.60;;
19225;SDS011;9747;48.536;12.522;2023-05-07T12:15:52;2.05;;;1.95;;
19225;SDS011;9747;48.536;12.522;2023-05-07T12:18:20;2.03;;;1.92;;
19225;SDS011;9747;48.536;12.522;2023-05-07T12:20:48;2.30;;;2.10;;
19225;SDS011;9747;48.536;12.522;2023-05-07T12:23:16;2.55;;;1.98;;
19225;SDS011;9747;48.536;12.522;2023-05-07T12:25:44;2.08;;;1.98;;
19225;SDS011;9747;48.536;12.522;2023-05-07T12:28:14;2.53;;;2.33;;
19225;SDS011;9747;48.536;12.522;2023-05-07T12:30:44;1.95;;;1.88;;
19225;SDS011;9747;48.536;12.522;2023-05-07T12:33:15;2.10;;;1.90;;
19225;SDS011;9747;48.536;12.522;2023-05-07T12:35:44;2.00;;;1.90;;
19225;SDS011;9747;48.536;12.522;2023-05-07T12:38:12;1.85;;;1.75;;
19225;SDS011;9747;48.536;12.522;2023-05-07T12:40:42;2.10;;;1.90;;
19225;SDS011;9747;48.536;12.522;2023-05-07T12:43:17;2.30;;;2.05;;
19225;SDS011;9747;48.536;12.522;2023-05-07T12:45:45;1.70;;;1.60;;
19225;SDS011;9747;48.536;12.522;2023-05-07T12:48:14;2.10;;;2.00;;
19225;SDS011;9747;48.536;12.522;2023-05-07T12:50:42;2.20;;;2.00;;
19225;SDS011;9747;48.536;12.522;2023-05-07T12:53:10;2.13;;;1.85;;
19225;SDS011;9747;48.536;12.522;2023-05-07T12:55:40;2.00;;;1.90;;
19225;SDS011;9747;48.536;12.522;2023-05-07T12:58:14;2.40;;;1.80;;
19225;SDS011;9747;48.536;12.522;2023-05-07T13:00:44;4.70;;;1.80;;
19225;SDS011;9747;48.536;12.522;2023-05-07T13:03:17;2.00;;;1.75;;
19225;SDS011;9747;48.536;12.522;2023-05-07T13:05:49;2.00;;;1.90;;
19225;SDS011;9747;48.536;12.522;2023-05-07T13:08:23;2.22;;;2.00;;
19225;SDS011;9747;48.536;12.522;2023-05-07T13:10:57;1.90;;;1.80;;
19225;SDS011;9747;48.536;12.522;2023-05-07T13:13:29;2.13;;;2.03;;
19225;SDS011;9747;48.536;12.522;2023-05-07T13:15:57;2.13;;;2.03;;
19225;SDS011;9747;48.536;12.522;2023-05-07T13:18:25;1.88;;;1.80;;
19225;SDS011;9747;48.536;12.522;2023-05-07T13:20:53;1.85;;;1.75;;
19225;SDS011;9747;48.536;12.522;2023-05-07T13:23:20;1.63;;;1.63;;
19225;SDS011;9747;48.536;12.522;2023-05-07T13:25:48;1.88;;;1.80;;
19225;SDS011;9747;48.536;12.522;2023-05-07T13:28:18;1.90;;;1.80;;
19225;SDS011;9747;48.536;12.522;2023-05-07T13:30:46;1.95;;;1.85;;
19225;SDS011;9747;48.536;12.522;2023-05-07T13:33:14;1.60;;;1.50;;
19225;SDS011;9747;48.536;12.522;2023-05-07T13:35:42;1.50;;;1.50;;
19225;SDS011;9747;48.536;12.522;2023-05-07T13:38:09;1.80;;;1.70;;
19225;SDS011;9747;48.536;12.522;2023-05-07T13:40:37;1.80;;;1.75;;
19225;SDS011;9747;48.536;12.522;2023-05-07T13:43:05;1.70;;;1.60;;
19225;SDS011;9747;48.536;12.522;2023-05-07T13:45:33;1.40;;;1.40;;
19225;SDS011;9747;48.536;12.522;2023-05-07T13:48:01;1.65;;;1.52;;
19225;SDS011;9747;48.536;12.522;2023-05-07T13:50:29;1.58;;;1.48;;
19225;SDS011;9747;48.536;12.522;2023-05-07T13:52:57;1.48;;;1.48;;
19225;SDS011;9747;48.536;12.522;2023-05-07T13:55:24;1.60;;;1.50;;
19225;SDS011;9747;48.536;12.522;2023-05-07T13:57:55;1.58;;;1.48;;
19225;SDS011;9747;48.536;12.522;2023-05-07T14:00:23;1.58;;;1.40;;
19225;SDS011;9747;48.536;12.522;2023-05-07T14:02:52;1.50;;;1.50;;
19225;SDS011;9747;48.536;12.522;2023-05-07T14:05:21;1.60;;;1.50;;
19225;SDS011;9747;48.536;12.522;2023-05-07T14:07:49;2.13;;;1.65;;
19225;SDS011;9747;48.536;12.522;2023-05-07T14:10:18;1.90;;;1.80;;
19225;SDS011;9747;48.536;12.522;2023-05-07T14:12:46;2.22;;;1.60;;
19225;SDS011;9747;48.536;12.522;2023-05-07T14:15:14;1.50;;;1.50;;
19225;SDS011;9747;48.536;12.522;2023-05-07T14:17:41;1.52;;;1.30;;
19225;SDS011;9747;48.536;12.522;2023-05-07T14:20:09;1.45;;;1.45;;
19225;SDS011;9747;48.536;12.522;2023-05-07T14:22:39;1.83;;;1.73;;
19225;SDS011;9747;48.536;12.522;2023-05-07T14:25:07;1.48;;;1.40;;
19225;SDS011;9747;48.536;12.522;2023-05-07T14:27:35;1.50;;;1.40;;
19225;SDS011;9747;48.536;12.522;2023-05-07T14:30:03;1.65;;;1.55;;
19225;SDS011;9747;48.536;12.522;2023-05-07T14:32:32;2.08;;;1.45;;
19225;SDS011;9747;48.536;12.522;2023-05-07T14:34:59;1.88;;;1.60;;
19225;SDS011;9747;48.536;12.522;2023-05-07T14:37:27;3.50;;;1.75;;
19225;SDS011;9747;48.536;12.522;2023-05-07T14:39:56;1.50;;;1.40;;
19225;SDS011;9747;48.536;12.522;2023-05-07T14:42:23;2.55;;;1.58;;
19225;SDS011;9747;48.536;12.522;2023-05-07T14:44:50;1.63;;;1.52;;
19225;SDS011;9747;48.536;12.522;2023-05-07T14:47:18;1.60;;;1.60;;
19225;SDS011;9747;48.536;12.522;2023-05-07T14:49:45;1.95;;;1.55;;
19225;SDS011;9747;48.536;12.522;2023-05-07T14:52:13;1.40;;;1.40;;
19225;SDS011;9747;48.536;12.522;2023-05-07T14:54:40;1.55;;;1.50;;
19225;SDS011;9747;48.536;12.522;2023-05-07T14:57:10;2.33;;;1.58;;
19225;SDS011;9747;48.536;12.522;2023-05-07T14:59:39;2.38;;;1.67;;
19225;SDS011;9747;48.536;12.522;2023-05-07T15:02:07;1.58;;;1.58;;
19225;SDS011;9747;48.536;12.522;2023-05-07T15:04:36;1.80;;;1.70;;
19225;SDS011;9747;48.536;12.522;2023-05-07T15:07:05;1.60;;;1.50;;
19225;SDS011;9747;48.536;12.522;2023-05-07T15:09:32;2.13;;;1.67;;